sensor_id;sensor_type;location;lat;lon;timestamp;pressure;altitude;pressure_sealevel;temperature;humidity
39243;BME280;29823;47.404;8.566;2023-03-01T00:01:13;96906.41;;;0.73;100.00
39243;BME280;29823;47.404;8.566;2023-03-01T00:03:42;96907.91;;;0.75;100.00
39243;BME280;29823;47.404;8.566;2023-03-01T00:06:11;96908.88;;;0.82;100.00
39243;BME280;29823;47.404;8.566;2023-03-01T00:08:39;96907.25;;;0.81;100.00
39243;BME280;29823;47.404;8.566;2023-03-01T00:11:10;96901.66;;;0.84;100.00
39243;BME280;29823;47.404;8.566;2023-03-01T00:13:40;96900.53;;;0.87;100.00
39243;BME280;29823;47.404;8.566;2023-03-01T00:16:10;96909.53;;;0.76;100.00
39243;BME280;29823;47.404;8.566;2023-03-01T00:18:39;96897.38;;;0.83;100.00
39243;BME280;29823;47.404;8.566;2023-03-01T00:21:07;96898.03;;;0.77;100.00
39243;BME280;29823;47.404;8.566;2023-03-01T00:23:37;96899.00;;;0.76;100.00
39243;BME280;29823;47.404;8.566;2023-03-01T00:26:06;96893.25;;;0.73;100.00
39243;BME280;29823;47.404;8.566;2023-03-01T00:28:34;96884.22;;;0.83;100.00
39243;BME280;29823;47.404;8.566;2023-03-01T00:31:03;96878.59;;;0.70;100.00
39243;BME280;29823;47.404;8.566;2023-03-01T00:33:31;96874.19;;;0.79;100.00
39243;BME280;29823;47.404;8.566;2023-03-01T00:36:00;96878.28;;;0.81;100.00
39243;BME280;29823;47.404;8.566;2023-03-01T00:38:28;96883.59;;;0.89;100.00
39243;BME280;29823;47.404;8.566;2023-03-01T00:41:03;96864.50;;;0.79;100.00
39243;BME280;29823;47.404;8.566;2023-03-01T00:43:30;96871.69;;;0.77;100.00
39243;BME280;29823;47.404;8.566;2023-03-01T00:46:03;96868.41;;;0.83;100.00
39243;BME280;29823;47.404;8.566;2023-03-01T00:48:31;96871.22;;;0.90;100.00
39243;BME280;29823;47.404;8.566;2023-03-01T00:51:04;96867.59;;;0.91;100.00
39243;BME280;29823;47.404;8.566;2023-03-01T00:53:32;96869.75;;;0.87;100.00
39243;BME280;29823;47.404;8.566;2023-03-01T00:56:02;96868.91;;;0.79;100.00
39243;BME280;29823;47.404;8.566;2023-03-01T00:58:30;96869.06;;;0.77;100.00
39243;BME280;29823;47.404;8.566;2023-03-01T01:00:58;96870.41;;;0.73;100.00
39243;BME280;29823;47.404;8.566;2023-03-01T01:03:26;96858.41;;;0.87;100.00
39243;BME280;29823;47.404;8.566;2023-03-01T01:05:54;96865.13;;;0.81;100.00
39243;BME280;29823;47.404;8.566;2023-03-01T01:08:22;96860.53;;;0.91;100.00
39243;BME280;29823;47.404;8.566;2023-03-01T01:10:50;96854.63;;;0.89;100.00
39243;BME280;29823;47.404;8.566;2023-03-01T01:13:19;96856.25;;;0.74;100.00
39243;BME280;29823;47.404;8.566;2023-03-01T01:15:48;96844.75;;;0.75;100.00
39243;BME280;29823;47.404;8.566;2023-03-01T01:18:15;96850.31;;;0.72;100.00
39243;BME280;29823;47.404;8.566;2023-03-01T01:20:43;96844.41;;;0.86;100.00
39243;BME280;29823;47.404;8.566;2023-03-01T01:23:11;96844.25;;;0.88;100.00
39243;BME280;29823;47.404;8.566;2023-03-01T01:25:39;96833.38;;;0.91;100.00
39243;BME280;29823;47.404;8.566;2023-03-01T01:28:07;96832.91;;;0.87;100.00
39243;BME280;29823;47.404;8.566;2023-03-01T01:30:36;96839.34;;;0.93;100.00
39243;BME280;29823;47.404;8.566;2023-03-01T01:33:04;96836.69;;;0.93;100.00
39243;BME280;29823;47.404;8.566;2023-03-01T01:35:32;96830.28;;;0.79;100.00
39243;BME280;29823;47.404;8.566;2023-03-01T01:38:00;96816.63;;;0.84;100.00
39243;BME280;29823;47.404;8.566;2023-03-01T01:40:28;96830.59;;;0.92;100.00
39243;BME280;29823;47.404;8.566;2023-03-01T01:42:56;96828.47;;;0.88;100.00
39243;BME280;29823;47.404;8.566;2023-03-01T01:45:28;96828.31;;;0.97;100.00
39243;BME280;29823;47.404;8.566;2023-03-01T01:48:01;96828.94;;;0.99;100.00
39243;BME280;29823;47.404;8.566;2023-03-01T01:50:30;96818.91;;;0.79;100.00
39243;BME280;29823;47.404;8.566;2023-03-01T01:53:07;96816.13;;;0.96;100.00
39243;BME280;29823;47.404;8.566;2023-03-01T01:55:41;96818.09;;;0.86;100.00
39243;BME280;29823;47.404;8.566;2023-03-01T01:58:12;96811.84;;;0.79;100.00
39243;BME280;29823;47.404;8.566;2023-03-01T02:00:41;96816.31;;;0.87;100.00
39243;BME280;29823;47.404;8.566;2023-03-01T02:03:14;96815.78;;;0.83;100.00
39243;BME280;29823;47.404;8.566;2023-03-01T02:05:47;96802.81;;;0.90;100.00
39243;BME280;29823;47.404;8.566;2023-03-01T02:08:23;96799.69;;;0.78;100.00
39243;BME280;29823;47.404;8.566;2023-03-01T02:10:53;96809.88;;;0.89;100.00
39243;BME280;29823;47.404;8.566;2023-03-01T02:13:22;96799.34;;;0.97;100.00
39243;BME280;29823;47.404;8.566;2023-03-01T02:15:51;96777.78;;;0.86;100.00
39243;BME280;29823;47.404;8.566;2023-03-01T02:18:22;96796.38;;;1.08;100.00
39243;BME280;29823;47.404;8.566;2023-03-01T02:21:02;96799.34;;;1.05;100.00
39243;BME280;29823;47.404;8.566;2023-03-01T02:23:33;96789.00;;;1.04;100.00
39243;BME280;29823;47.404;8.566;2023-03-01T02:26:05;96792.78;;;1.01;100.00
39243;BME280;29823;47.404;8.566;2023-03-01T02:28:38;96795.38;;;0.93;100.00
39243;BME280;29823;47.404;8.566;2023-03-01T02:31:09;96795.06;;;0.96;100.00
39243;BME280;29823;47.404;8.566;2023-03-01T02:33:55;96774.50;;;1.00;100.00
39243;BME280;29823;47.404;8.566;2023-03-01T02:36:28;96772.69;;;1.08;100.00
39243;BME280;29823;47.404;8.566;2023-03-01T02:38:59;96769.22;;;1.16;100.00
39243;BME280;29823;47.404;8.566;2023-03-01T02:41:31;96774.16;;;1.11;100.00
39243;BME280;29823;47.404;8.566;2023-03-01T02:44:04;96778.28;;;1.13;100.00
39243;BME280;29823;47.404;8.566;2023-03-01T02:46:32;96772.34;;;1.03;100.00
39243;BME280;29823;47.404;8.566;2023-03-01T02:49:00;96758.19;;;1.04;100.00
39243;BME280;29823;47.404;8.566;2023-03-01T02:51:42;96758.19;;;1.12;100.00
39243;BME280;29823;47.404;8.566;2023-03-01T02:54:20;96769.06;;;1.09;100.00
39243;BME280;29823;47.404;8.566;2023-03-01T02:56:50;96758.03;;;1.14;100.00
39243;BME280;29823;47.404;8.566;2023-03-01T02:59:21;96760.16;;;1.18;100.00
39243;BME280;29823;47.404;8.566;2023-03-01T03:01:49;96762.47;;;1.21;100.00
39243;BME280;29823;47.404;8.566;2023-03-01T03:04:18;96751.28;;;1.19;100.00
39243;BME280;29823;47.404;8.566;2023-03-01T03:06:49;96756.38;;;1.13;100.00
39243;BME280;29823;47.404;8.566;2023-03-01T03:09:18;96753.41;;;1.16;100.00
39243;BME280;29823;47.404;8.566;2023-03-01T03:11:46;96747.00;;;1.18;100.00
39243;BME280;29823;47.404;8.566;2023-03-01T03:14:16;96751.94;;;1.21;100.00
39243;BME280;29823;47.404;8.566;2023-03-01T03:16:47;96748.94;;;1.24;100.00
39243;BME280;29823;47.404;8.566;2023-03-01T03:19:15;96736.16;;;1.13;100.00
39243;BME280;29823;47.404;8.566;2023-03-01T03:21:44;96745.53;;;1.16;100.00
39243;BME280;29823;47.404;8.566;2023-03-01T03:24:12;96743.03;;;1.22;100.00
39243;BME280;29823;47.404;8.566;2023-03-01T03:26:40;96736.25;;;1.28;100.00
39243;BME280;29823;47.404;8.566;2023-03-01T03:29:07;96732.03;;;1.19;100.00
39243;BME280;29823;47.404;8.566;2023-03-01T03:31:35;96731.50;;;1.23;100.00
39243;BME280;29823;47.404;8.566;2023-03-01T03:34:05;96732.16;;;1.25;100.00
39243;BME280;29823;47.404;8.566;2023-03-01T03:36:32;96743.50;;;1.34;100.00
39243;BME280;29823;47.404;8.566;2023-03-01T03:39:01;96749.59;;;1.26;100.00
39243;BME280;29823;47.404;8.566;2023-03-01T03:41:28;96743.69;;;1.32;100.00
39243;BME280;29823;47.404;8.566;2023-03-01T03:43:56;96746.97;;;1.34;100.00
39243;BME280;29823;47.404;8.566;2023-03-01T03:46:24;96740.00;;;1.41;100.00
39243;BME280;29823;47.404;8.566;2023-03-01T03:48:52;96736.09;;;1.37;100.00
39243;BME280;29823;47.404;8.566;2023-03-01T03:51:21;96741.66;;;1.42;100.00
39243;BME280;29823;47.404;8.566;2023-03-01T03:53:49;96744.97;;;1.36;100.00
39243;BME280;29823;47.404;8.566;2023-03-01T03:56:17;96738.91;;;1.36;100.00
39243;BME280;29823;47.404;8.566;2023-03-01T03:58:45;96735.31;;;1.21;100.00
39243;BME280;29823;47.404;8.566;2023-03-01T04:01:13;96731.16;;;1.26;100.00
39243;BME280;29823;47.404;8.566;2023-03-01T04:03:41;96736.25;;;1.36;100.00
39243;BME280;29823;47.404;8.566;2023-03-01T04:06:13;96740.53;;;1.37;100.00
39243;BME280;29823;47.404;8.566;2023-03-01T04:08:42;96738.72;;;1.37;100.00
39243;BME280;29823;47.404;8.566;2023-03-01T04:11:11;96732.63;;;1.29;100.00
39243;BME280;29823;47.404;8.566;2023-03-01T04:13:56;96737.69;;;1.46;100.00
39243;BME280;29823;47.404;8.566;2023-03-01T04:16:24;96734.63;;;1.27;100.00
39243;BME280;29823;47.404;8.566;2023-03-01T04:18:52;96734.91;;;1.40;100.00
39243;BME280;29823;47.404;8.566;2023-03-01T04:21:21;96724.19;;;1.49;100.00
39243;BME280;29823;47.404;8.566;2023-03-01T04:23:50;96729.31;;;1.51;100.00
39243;BME280;29823;47.404;8.566;2023-03-01T04:26:19;96719.94;;;1.40;100.00
39243;BME280;29823;47.404;8.566;2023-03-01T04:28:47;96720.56;;;1.50;100.00
39243;BME280;29823;47.404;8.566;2023-03-01T04:31:18;96722.06;;;1.45;100.00
39243;BME280;29823;47.404;8.566;2023-03-01T04:33:49;96720.09;;;1.47;100.00
39243;BME280;29823;47.404;8.566;2023-03-01T04:36:20;96729.16;;;1.44;100.00
39243;BME280;29823;47.404;8.566;2023-03-01T04:38:50;96729.63;;;1.40;100.00
39243;BME280;29823;47.404;8.566;2023-03-01T04:41:20;96718.44;;;1.46;100.00
39243;BME280;29823;47.404;8.566;2023-03-01T04:43:48;96713.03;;;1.39;100.00
39243;BME280;29823;47.404;8.566;2023-03-01T04:46:20;96718.94;;;1.49;100.00
39243;BME280;29823;47.404;8.566;2023-03-01T04:48:48;96712.50;;;1.44;100.00
39243;BME280;29823;47.404;8.566;2023-03-01T04:51:16;96715.34;;;1.34;100.00
39243;BME280;29823;47.404;8.566;2023-03-01T04:53:45;96711.72;;;1.43;100.00
39243;BME280;29823;47.404;8.566;2023-03-01T04:56:14;96714.47;;;1.50;100.00
39243;BME280;29823;47.404;8.566;2023-03-01T04:58:44;96709.03;;;1.51;100.00
39243;BME280;29823;47.404;8.566;2023-03-01T05:01:14;96709.38;;;1.48;100.00
39243;BME280;29823;47.404;8.566;2023-03-01T05:03:42;96710.03;;;1.42;100.00
39243;BME280;29823;47.404;8.566;2023-03-01T05:06:11;96714.53;;;1.34;100.00
39243;BME280;29823;47.404;8.566;2023-03-01T05:08:41;96702.03;;;1.36;100.00
39243;BME280;29823;47.404;8.566;2023-03-01T05:11:10;96705.44;;;1.44;100.00
39243;BME280;29823;47.404;8.566;2023-03-01T05:13:39;96698.38;;;1.37;100.00
39243;BME280;29823;47.404;8.566;2023-03-01T05:16:08;96708.06;;;1.44;100.00
39243;BME280;29823;47.404;8.566;2023-03-01T05:18:39;96689.47;;;1.46;100.00
39243;BME280;29823;47.404;8.566;2023-03-01T05:21:09;96697.84;;;1.49;100.00
39243;BME280;29823;47.404;8.566;2023-03-01T05:23:38;96694.69;;;1.54;100.00
39243;BME280;29823;47.404;8.566;2023-03-01T05:26:07;96694.00;;;1.60;100.00
39243;BME280;29823;47.404;8.566;2023-03-01T05:28:54;96692.22;;;1.60;100.00
39243;BME280;29823;47.404;8.566;2023-03-01T05:31:26;96680.75;;;1.45;100.00
39243;BME280;29823;47.404;8.566;2023-03-01T05:33:54;96688.56;;;1.61;100.00
39243;BME280;29823;47.404;8.566;2023-03-01T05:36:22;96680.19;;;1.58;100.00
39243;BME280;29823;47.404;8.566;2023-03-01T05:38:50;96689.91;;;1.57;100.00
39243;BME280;29823;47.404;8.566;2023-03-01T05:41:18;96671.16;;;1.52;100.00
39243;BME280;29823;47.404;8.566;2023-03-01T05:43:46;96663.94;;;1.46;100.00
39243;BME280;29823;47.404;8.566;2023-03-01T05:46:15;96683.94;;;1.63;100.00
39243;BME280;29823;47.404;8.566;2023-03-01T05:48:43;96672.28;;;1.58;100.00
39243;BME280;29823;47.404;8.566;2023-03-01T05:51:11;96672.75;;;1.61;100.00
39243;BME280;29823;47.404;8.566;2023-03-01T05:53:39;96672.00;;;1.45;100.00
39243;BME280;29823;47.404;8.566;2023-03-01T05:56:07;96668.50;;;1.52;100.00
39243;BME280;29823;47.404;8.566;2023-03-01T05:58:35;96650.75;;;1.54;100.00
39243;BME280;29823;47.404;8.566;2023-03-01T06:01:05;96662.38;;;1.60;100.00
39243;BME280;29823;47.404;8.566;2023-03-01T06:03:34;96667.88;;;1.50;100.00
39243;BME280;29823;47.404;8.566;2023-03-01T06:06:02;96660.50;;;1.46;100.00
39243;BME280;29823;47.404;8.566;2023-03-01T06:08:30;96658.66;;;1.54;100.00
39243;BME280;29823;47.404;8.566;2023-03-01T06:10:58;96659.44;;;1.55;100.00
39243;BME280;29823;47.404;8.566;2023-03-01T06:13:25;96658.44;;;1.56;100.00
39243;BME280;29823;47.404;8.566;2023-03-01T06:15:53;96650.53;;;1.56;100.00
39243;BME280;29823;47.404;8.566;2023-03-01T06:18:21;96654.00;;;1.56;100.00
39243;BME280;29823;47.404;8.566;2023-03-01T06:20:54;96652.69;;;1.60;100.00
39243;BME280;29823;47.404;8.566;2023-03-01T06:23:22;96656.00;;;1.54;100.00
39243;BME280;29823;47.404;8.566;2023-03-01T06:25:50;96655.69;;;1.49;100.00
39243;BME280;29823;47.404;8.566;2023-03-01T06:28:18;96658.59;;;1.62;100.00
39243;BME280;29823;47.404;8.566;2023-03-01T06:30:46;96662.53;;;1.66;100.00
39243;BME280;29823;47.404;8.566;2023-03-01T06:33:13;96654.47;;;1.60;100.00
39243;BME280;29823;47.404;8.566;2023-03-01T06:35:42;96648.56;;;1.58;100.00
39243;BME280;29823;47.404;8.566;2023-03-01T06:38:11;96663.22;;;1.60;100.00
39243;BME280;29823;47.404;8.566;2023-03-01T06:40:41;96664.84;;;1.61;100.00
39243;BME280;29823;47.404;8.566;2023-03-01T06:43:09;96658.19;;;1.73;100.00
39243;BME280;29823;47.404;8.566;2023-03-01T06:45:37;96660.53;;;1.68;100.00
39243;BME280;29823;47.404;8.566;2023-03-01T06:48:06;96661.75;;;1.58;100.00
39243;BME280;29823;47.404;8.566;2023-03-01T06:50:34;96665.16;;;1.66;100.00
39243;BME280;29823;47.404;8.566;2023-03-01T06:53:03;96660.06;;;1.65;100.00
39243;BME280;29823;47.404;8.566;2023-03-01T06:55:32;96658.56;;;1.70;100.00
39243;BME280;29823;47.404;8.566;2023-03-01T06:58:01;96610.63;;;1.36;100.00
39243;BME280;29823;47.404;8.566;2023-03-01T07:00:29;96661.53;;;1.67;100.00
39243;BME280;29823;47.404;8.566;2023-03-01T07:02:59;96661.19;;;1.70;100.00
39243;BME280;29823;47.404;8.566;2023-03-01T07:05:28;96666.25;;;1.80;100.00
39243;BME280;29823;47.404;8.566;2023-03-01T07:07:56;96661.50;;;1.75;100.00
39243;BME280;29823;47.404;8.566;2023-03-01T07:10:24;96666.00;;;1.89;100.00
39243;BME280;29823;47.404;8.566;2023-03-01T07:12:56;96662.13;;;1.77;100.00
39243;BME280;29823;47.404;8.566;2023-03-01T07:15:24;96669.34;;;1.83;100.00
39243;BME280;29823;47.404;8.566;2023-03-01T07:17:52;96669.09;;;1.70;100.00
39243;BME280;29823;47.404;8.566;2023-03-01T07:20:20;96655.94;;;1.70;100.00
39243;BME280;29823;47.404;8.566;2023-03-01T07:22:51;96665.09;;;1.74;100.00
39243;BME280;29823;47.404;8.566;2023-03-01T07:25:18;96666.41;;;1.78;100.00
39243;BME280;29823;47.404;8.566;2023-03-01T07:27:49;96652.94;;;1.73;100.00
39243;BME280;29823;47.404;8.566;2023-03-01T07:30:19;96656.50;;;1.80;100.00
39243;BME280;29823;47.404;8.566;2023-03-01T07:32:47;96643.31;;;1.80;100.00
39243;BME280;29823;47.404;8.566;2023-03-01T07:35:15;96649.13;;;1.76;100.00
39243;BME280;29823;47.404;8.566;2023-03-01T07:37:43;96660.81;;;1.81;100.00
39243;BME280;29823;47.404;8.566;2023-03-01T07:40:12;96655.34;;;1.83;100.00
39243;BME280;29823;47.404;8.566;2023-03-01T07:42:40;96656.41;;;1.96;100.00
39243;BME280;29823;47.404;8.566;2023-03-01T07:45:09;96652.03;;;1.89;100.00
39243;BME280;29823;47.404;8.566;2023-03-01T07:47:38;96661.97;;;2.01;100.00
39243;BME280;29823;47.404;8.566;2023-03-01T07:50:07;96648.13;;;1.77;100.00
39243;BME280;29823;47.404;8.566;2023-03-01T07:52:35;96654.38;;;1.84;100.00
39243;BME280;29823;47.404;8.566;2023-03-01T07:55:04;96650.59;;;1.78;100.00
39243;BME280;29823;47.404;8.566;2023-03-01T07:57:32;96650.66;;;1.70;100.00
39243;BME280;29823;47.404;8.566;2023-03-01T07:59:59;96642.69;;;1.78;100.00
39243;BME280;29823;47.404;8.566;2023-03-01T08:02:27;96650.13;;;1.75;100.00
39243;BME280;29823;47.404;8.566;2023-03-01T08:04:57;96646.34;;;1.69;100.00
39243;BME280;29823;47.404;8.566;2023-03-01T08:07:24;96652.63;;;1.68;100.00
39243;BME280;29823;47.404;8.566;2023-03-01T08:09:52;96655.44;;;1.97;100.00
39243;BME280;29823;47.404;8.566;2023-03-01T08:12:20;96648.13;;;1.77;100.00
39243;BME280;29823;47.404;8.566;2023-03-01T08:14:49;96649.19;;;1.90;100.00
39243;BME280;29823;47.404;8.566;2023-03-01T08:17:16;96645.22;;;1.94;100.00
39243;BME280;29823;47.404;8.566;2023-03-01T08:19:44;96646.25;;;1.85;100.00
39243;BME280;29823;47.404;8.566;2023-03-01T08:22:14;96634.06;;;1.84;100.00
39243;BME280;29823;47.404;8.566;2023-03-01T08:24:42;96642.25;;;1.97;100.00
39243;BME280;29823;47.404;8.566;2023-03-01T08:27:10;96645.81;;;2.04;100.00
39243;BME280;29823;47.404;8.566;2023-03-01T08:29:38;96635.97;;;1.98;100.00
39243;BME280;29823;47.404;8.566;2023-03-01T08:32:06;96641.09;;;2.00;100.00
39243;BME280;29823;47.404;8.566;2023-03-01T08:34:34;96641.25;;;1.98;100.00
39243;BME280;29823;47.404;8.566;2023-03-01T08:37:03;96637.50;;;2.15;100.00
39243;BME280;29823;47.404;8.566;2023-03-01T08:39:32;96627.41;;;1.96;100.00
39243;BME280;29823;47.404;8.566;2023-03-01T08:42:00;96610.19;;;1.86;100.00
39243;BME280;29823;47.404;8.566;2023-03-01T08:44:28;96624.38;;;2.07;100.00
39243;BME280;29823;47.404;8.566;2023-03-01T08:46:56;96627.94;;;2.14;100.00
39243;BME280;29823;47.404;8.566;2023-03-01T08:49:24;96619.63;;;2.03;100.00
39243;BME280;29823;47.404;8.566;2023-03-01T08:51:51;96631.75;;;2.12;100.00
39243;BME280;29823;47.404;8.566;2023-03-01T08:54:20;96635.31;;;2.19;100.00
39243;BME280;29823;47.404;8.566;2023-03-01T08:56:50;96617.66;;;2.05;100.00
39243;BME280;29823;47.404;8.566;2023-03-01T08:59:18;96621.78;;;1.99;100.00
39243;BME280;29823;47.404;8.566;2023-03-01T09:01:46;96621.25;;;2.26;100.00
39243;BME280;29823;47.404;8.566;2023-03-01T09:04:14;96629.66;;;2.07;100.00
39243;BME280;29823;47.404;8.566;2023-03-01T09:06:42;96630.75;;;2.13;100.00
39243;BME280;29823;47.404;8.566;2023-03-01T09:09:13;96639.63;;;1.97;100.00
39243;BME280;29823;47.404;8.566;2023-03-01T09:11:42;96634.97;;;1.99;100.00
39243;BME280;29823;47.404;8.566;2023-03-01T09:14:13;96629.06;;;1.97;100.00
39243;BME280;29823;47.404;8.566;2023-03-01T09:16:42;96625.44;;;1.98;100.00
39243;BME280;29823;47.404;8.566;2023-03-01T09:19:10;96626.59;;;2.18;100.00
39243;BME280;29823;47.404;8.566;2023-03-01T09:21:38;96618.50;;;2.20;100.00
39243;BME280;29823;47.404;8.566;2023-03-01T09:24:12;96609.47;;;2.14;100.00
39243;BME280;29823;47.404;8.566;2023-03-01T09:26:41;96607.22;;;2.26;100.00
39243;BME280;29823;47.404;8.566;2023-03-01T09:29:09;96603.63;;;2.27;100.00
39243;BME280;29823;47.404;8.566;2023-03-01T09:31:38;96601.28;;;2.32;100.00
39243;BME280;29823;47.404;8.566;2023-03-01T09:34:07;96608.41;;;2.23;100.00
39243;BME280;29823;47.404;8.566;2023-03-01T09:36:36;96616.06;;;2.18;100.00
39243;BME280;29823;47.404;8.566;2023-03-01T09:39:04;96616.06;;;2.18;100.00
39243;BME280;29823;47.404;8.566;2023-03-01T09:41:49;96611.31;;;2.28;100.00
39243;BME280;29823;47.404;8.566;2023-03-01T09:44:35;96622.59;;;2.22;100.00
39243;BME280;29823;47.404;8.566;2023-03-01T09:47:17;96609.22;;;2.24;100.00
39243;BME280;29823;47.404;8.566;2023-03-01T09:49:50;96605.38;;;2.34;100.00
39243;BME280;29823;47.404;8.566;2023-03-01T09:52:26;96611.56;;;2.41;100.00
39243;BME280;29823;47.404;8.566;2023-03-01T09:54:56;96602.81;;;2.41;100.00
39243;BME280;29823;47.404;8.566;2023-03-01T09:57:30;96611.19;;;2.44;100.00
39243;BME280;29823;47.404;8.566;2023-03-01T10:00:12;96601.28;;;2.09;100.00
39243;BME280;29823;47.404;8.566;2023-03-01T10:02:45;96587.69;;;2.20;100.00
39243;BME280;29823;47.404;8.566;2023-03-01T10:05:31;96597.50;;;2.26;100.00
39243;BME280;29823;47.404;8.566;2023-03-01T10:08:26;96594.44;;;2.37;100.00
39243;BME280;29823;47.404;8.566;2023-03-01T10:10:57;96589.91;;;2.46;100.00
39243;BME280;29823;47.404;8.566;2023-03-01T10:13:44;96602.69;;;2.71;100.00
39243;BME280;29823;47.404;8.566;2023-03-01T10:16:17;96591.25;;;2.42;100.00
39243;BME280;29823;47.404;8.566;2023-03-01T10:18:51;96595.75;;;2.19;100.00
39243;BME280;29823;47.404;8.566;2023-03-01T10:21:20;96594.38;;;2.45;100.00
39243;BME280;29823;47.404;8.566;2023-03-01T10:23:51;96595.28;;;2.38;100.00
39243;BME280;29823;47.404;8.566;2023-03-01T10:26:32;96593.72;;;2.43;100.00
39243;BME280;29823;47.404;8.566;2023-03-01T10:29:04;96581.97;;;2.31;100.00
39243;BME280;29823;47.404;8.566;2023-03-01T10:31:39;96589.72;;;2.47;100.00
39243;BME280;29823;47.404;8.566;2023-03-01T10:34:14;96595.00;;;2.47;100.00
39243;BME280;29823;47.404;8.566;2023-03-01T10:36:48;96584.84;;;2.59;100.00
39243;BME280;29823;47.404;8.566;2023-03-01T10:39:19;96579.25;;;2.39;100.00
39243;BME280;29823;47.404;8.566;2023-03-01T10:41:56;96582.38;;;2.57;100.00
39243;BME280;29823;47.404;8.566;2023-03-01T10:44:36;96568.63;;;2.47;100.00
39243;BME280;29823;47.404;8.566;2023-03-01T10:47:08;96572.84;;;2.56;100.00
39243;BME280;29823;47.404;8.566;2023-03-01T10:49:51;96569.09;;;2.65;100.00
39243;BME280;29823;47.404;8.566;2023-03-01T10:52:22;96572.00;;;2.56;100.00
39243;BME280;29823;47.404;8.566;2023-03-01T10:54:53;96571.16;;;2.55;100.00
39243;BME280;29823;47.404;8.566;2023-03-01T10:57:31;96575.66;;;2.69;100.00
39243;BME280;29823;47.404;8.566;2023-03-01T11:00:21;96571.56;;;2.81;100.00
39243;BME280;29823;47.404;8.566;2023-03-01T11:03:01;96552.00;;;2.61;100.00
39243;BME280;29823;47.404;8.566;2023-03-01T11:05:30;96561.81;;;2.82;100.00
39243;BME280;29823;47.404;8.566;2023-03-01T11:08:02;96578.91;;;2.57;100.00
39243;BME280;29823;47.404;8.566;2023-03-01T11:10:32;96570.44;;;2.47;100.00
39243;BME280;29823;47.404;8.566;2023-03-01T11:13:08;96560.63;;;2.55;100.00
39243;BME280;29823;47.404;8.566;2023-03-01T11:15:40;96576.28;;;2.57;100.00
39243;BME280;29823;47.404;8.566;2023-03-01T11:18:19;96566.09;;;2.68;100.00
39243;BME280;29823;47.404;8.566;2023-03-01T11:21:07;96562.19;;;2.64;100.00
39243;BME280;29823;47.404;8.566;2023-03-01T11:23:37;96565.72;;;2.71;100.00
39243;BME280;29823;47.404;8.566;2023-03-01T11:26:08;96557.28;;;2.76;100.00
39243;BME280;29823;47.404;8.566;2023-03-01T11:28:40;96568.91;;;2.81;100.00
39243;BME280;29823;47.404;8.566;2023-03-01T11:31:10;96570.63;;;3.03;100.00
39243;BME280;29823;47.404;8.566;2023-03-01T11:33:44;96562.09;;;2.72;100.00
39243;BME280;29823;47.404;8.566;2023-03-01T11:36:28;96553.63;;;2.91;100.00
39243;BME280;29823;47.404;8.566;2023-03-01T11:39:04;96549.97;;;2.78;100.00
39243;BME280;29823;47.404;8.566;2023-03-01T11:41:35;96560.72;;;2.91;100.00
39243;BME280;29823;47.404;8.566;2023-03-01T11:44:11;96541.88;;;2.94;100.00
39243;BME280;29823;47.404;8.566;2023-03-01T11:46:49;96539.72;;;2.68;100.00
39243;BME280;29823;47.404;8.566;2023-03-01T11:49:48;96529.03;;;2.76;100.00
39243;BME280;29823;47.404;8.566;2023-03-01T11:52:29;96532.69;;;2.75;100.00
39243;BME280;29823;47.404;8.566;2023-03-01T11:55:20;96541.16;;;2.85;100.00
39243;BME280;29823;47.404;8.566;2023-03-01T11:58:04;96536.06;;;2.69;100.00
39243;BME280;29823;47.404;8.566;2023-03-01T12:00:59;96539.97;;;2.73;100.00
39243;BME280;29823;47.404;8.566;2023-03-01T12:03:47;96527.41;;;2.75;100.00
39243;BME280;29823;47.404;8.566;2023-03-01T12:06:42;96530.06;;;2.75;100.00
39243;BME280;29823;47.404;8.566;2023-03-01T12:09:27;96533.59;;;2.82;100.00
39243;BME280;29823;47.404;8.566;2023-03-01T12:12:12;96527.25;;;2.62;100.00
39243;BME280;29823;47.404;8.566;2023-03-01T12:14:54;96525.22;;;2.79;100.00
39243;BME280;29823;47.404;8.566;2023-03-01T12:17:47;96518.00;;;2.87;100.00
39243;BME280;29823;47.404;8.566;2023-03-01T12:20:27;96506.56;;;2.80;100.00
39243;BME280;29823;47.404;8.566;2023-03-01T12:23:16;96516.47;;;2.93;100.00
39243;BME280;29823;47.404;8.566;2023-03-01T12:25:55;96504.28;;;2.63;100.00
39243;BME280;29823;47.404;8.566;2023-03-01T12:28:43;96503.75;;;2.67;100.00
39243;BME280;29823;47.404;8.566;2023-03-01T12:34:42;96506.41;;;2.67;100.00
39243;BME280;29823;47.404;8.566;2023-03-01T12:37:19;96497.91;;;2.72;100.00
39243;BME280;29823;47.404;8.566;2023-03-01T12:39:59;96494.75;;;2.47;100.00
39243;BME280;29823;47.404;8.566;2023-03-01T12:42:40;96488.84;;;2.45;100.00
39243;BME280;29823;47.404;8.566;2023-03-01T12:45:35;96485.28;;;2.53;100.00
39243;BME280;29823;47.404;8.566;2023-03-01T12:48:34;96495.00;;;2.67;100.00
39243;BME280;29823;47.404;8.566;2023-03-01T12:51:08;96493.53;;;2.79;100.00
39243;BME280;29823;47.404;8.566;2023-03-01T12:53:39;96479.19;;;2.67;100.00
39243;BME280;29823;47.404;8.566;2023-03-01T12:56:10;96484.34;;;2.60;100.00
39243;BME280;29823;47.404;8.566;2023-03-01T12:58:50;96490.34;;;2.69;100.00
39243;BME280;29823;47.404;8.566;2023-03-01T13:01:34;96490.84;;;2.72;100.00
39243;BME280;29823;47.404;8.566;2023-03-01T13:04:15;96489.25;;;2.78;100.00
39243;BME280;29823;47.404;8.566;2023-03-01T13:06:50;96483.72;;;2.58;100.00
39243;BME280;29823;47.404;8.566;2023-03-01T13:09:27;96491.19;;;2.55;100.00
39243;BME280;29823;47.404;8.566;2023-03-01T13:11:58;96483.81;;;2.79;100.00
39243;BME280;29823;47.404;8.566;2023-03-01T13:14:39;96482.53;;;2.75;100.00
39243;BME280;29823;47.404;8.566;2023-03-01T13:17:40;96487.53;;;2.85;100.00
39243;BME280;29823;47.404;8.566;2023-03-01T13:20:13;96493.47;;;2.72;100.00
39243;BME280;29823;47.404;8.566;2023-03-01T13:22:42;96483.81;;;2.79;100.00
39243;BME280;29823;47.404;8.566;2023-03-01T13:25:20;96482.53;;;2.75;100.00
39243;BME280;29823;47.404;8.566;2023-03-01T13:31:00;96478.34;;;2.66;100.00